createdAt,value
2019-04-23T00:00:08.834Z,63.58
2019-04-23T00:05:41.803Z,62.13
2019-04-23T00:08:07.698Z,62.25
2019-04-23T00:10:53.749Z,61.37
2019-04-23T00:12:59.144Z,61.31
2019-04-23T00:16:10.383Z,61.45
2019-04-23T00:18:36.954Z,61.75
2019-04-23T00:21:33.416Z,62.30
2019-04-23T00:24:10.265Z,63.01
2019-04-23T00:26:37.218Z,63.83
2019-04-23T00:31:40.864Z,63.33
2019-04-23T00:34:09.272Z,63.23
2019-04-23T00:39:08.316Z,62.96
2019-04-23T00:41:48.195Z,62.81
2019-04-23T00:44:15.076Z,61.99
2019-04-23T00:46:48.660Z,61.80
2019-04-23T00:49:19.950Z,64.00
2019-04-23T00:51:50.113Z,62.90
2019-04-23T00:54:26.212Z,62.12
2019-04-23T00:56:55.385Z,61.83
2019-04-23T00:59:21.477Z,65.84
2019-04-23T01:02:13.307Z,68.04
2019-04-23T01:04:26.611Z,67.82
2019-04-23T01:07:02.516Z,69.21
2019-04-23T01:09:37.301Z,69.76
2019-04-23T01:12:06.114Z,69.82
2019-04-23T01:14:32.547Z,68.03
2019-04-23T01:17:11.305Z,66.81
2019-04-23T01:19:47.727Z,65.71
2019-04-23T01:21:55.859Z,64.42
2019-04-23T01:24:50.801Z,63.90
2019-04-23T01:30:19.759Z,64.10
2019-04-23T01:32:51.801Z,63.35
2019-04-23T01:35:36.435Z,64.80
2019-04-23T01:37:53.884Z,64.12
2019-04-23T01:43:14.365Z,64.44
2019-04-23T01:48:13.255Z,64.50
2019-04-23T01:50:37.770Z,63.53
2019-04-23T01:53:10.298Z,62.65
2019-04-23T01:55:36.752Z,62.54
2019-04-23T01:58:32.428Z,62.08
2019-04-23T02:00:41.030Z,62.32
2019-04-23T02:03:09.427Z,62.68
2019-04-23T02:05:44.955Z,62.35
2019-04-23T02:10:50.992Z,62.22
2019-04-23T02:13:19.276Z,62.29
2019-04-23T02:15:47.503Z,62.52
2019-04-23T02:18:16.271Z,62.74
2019-04-23T02:20:55.176Z,62.72
2019-04-23T02:23:39.715Z,62.72
2019-04-23T02:26:08.999Z,63.93
2019-04-23T02:28:49.584Z,63.70
2019-04-23T02:36:18.399Z,63.34
2019-04-23T02:38:52.282Z,62.54
2019-04-23T02:41:31.647Z,62.78
2019-04-23T02:43:59.179Z,63.41
2019-04-23T02:48:59.247Z,64.07
2019-04-23T02:51:48.113Z,63.92
2019-04-23T02:56:37.446Z,64.19
2019-04-23T03:04:08.138Z,63.17
2019-04-23T03:06:38.130Z,62.48
2019-04-23T03:11:41.796Z,62.64
2019-04-23T03:14:27.251Z,62.76
2019-04-23T03:22:37.722Z,61.02
2019-04-23T03:25:10.299Z,59.85
2019-04-23T03:27:33.780Z,59.69
2019-04-23T03:30:17.005Z,58.59
2019-04-23T03:32:45.827Z,57.83
2019-04-23T03:36:33.696Z,58.01
2019-04-23T03:37:50.810Z,56.93
2019-04-23T03:42:48.665Z,57.27
2019-04-23T03:45:35.253Z,57.10
2019-04-23T03:47:50.420Z,57.41
2019-04-23T03:57:52.279Z,59.16
2019-04-23T04:03:12.723Z,58.96
2019-04-23T04:05:42.148Z,58.50
2019-04-23T04:10:44.544Z,56.94
2019-04-23T04:13:11.904Z,56.34
2019-04-23T04:18:24.004Z,56.21
2019-04-23T04:20:49.375Z,54.59
2019-04-23T04:23:27.700Z,54.08
2019-04-23T04:25:51.570Z,53.64
2019-04-23T04:28:17.811Z,52.78
2019-04-23T04:30:48.144Z,51.63
2019-04-23T04:36:10.661Z,51.70
2019-04-23T04:38:36.019Z,51.27
2019-04-23T04:43:31.292Z,51.70
2019-04-23T04:46:21.185Z,52.45
2019-04-23T04:48:32.222Z,53.43
2019-04-23T04:51:15.769Z,54.34
2019-04-23T04:58:44.053Z,54.18
2019-04-23T05:01:13.746Z,53.72
2019-04-23T05:03:29.202Z,53.16
2019-04-23T05:06:16.185Z,53.63
2019-04-23T05:11:17.434Z,53.16
2019-04-23T05:13:44.532Z,53.57
2019-04-23T05:16:13.932Z,54.48
2019-04-23T05:18:53.512Z,54.00
2019-04-23T05:21:20.770Z,54.49
2019-04-23T05:26:26.564Z,54.47
2019-04-23T05:31:23.695Z,56.64
2019-04-23T05:34:01.470Z,55.49
2019-04-23T05:41:29.837Z,54.28
2019-04-23T05:44:05.118Z,53.07
2019-04-23T05:46:45.902Z,52.15
2019-04-23T05:49:09.237Z,51.72
2019-04-23T05:51:48.601Z,49.70
2019-04-23T05:54:06.767Z,49.09
2019-04-23T05:56:38.602Z,44.49
2019-04-23T05:59:11.813Z,42.32
2019-04-23T06:06:54.123Z,38.63
2019-04-23T06:14:32.884Z,35.78
2019-04-23T06:16:55.396Z,34.42
2019-04-23T06:19:18.718Z,32.55
2019-04-23T06:21:57.508Z,31.76
2019-04-23T06:24:27.329Z,31.80
2019-04-23T06:29:37.602Z,35.03
2019-04-23T06:31:54.139Z,35.06
2019-04-23T06:34:31.180Z,37.22
2019-04-23T06:36:58.931Z,35.79
2019-04-23T06:39:36.973Z,36.15
2019-04-23T06:42:02.102Z,37.24
2019-04-23T06:44:57.638Z,36.54
2019-04-23T06:49:49.501Z,36.75
2019-04-23T06:52:19.136Z,37.05
2019-04-23T06:54:47.664Z,36.69
2019-04-23T06:57:22.237Z,37.14
2019-04-23T06:59:48.440Z,36.22
2019-04-23T07:05:01.767Z,33.96
2019-04-23T07:07:42.621Z,32.24
2019-04-23T07:09:52.370Z,32.27
2019-04-23T07:12:44.867Z,33.15
2019-04-23T07:17:24.673Z,33.40
2019-04-23T07:20:04.635Z,31.31
2019-04-23T07:22:26.811Z,32.47
2019-04-23T07:25:20.362Z,31.42
2019-04-23T07:30:11.642Z,31.99
2019-04-23T07:32:36.245Z,31.32
2019-04-23T07:35:11.587Z,33.46
2019-04-23T07:37:48.890Z,34.28
2019-04-23T07:43:23.395Z,31.93
2019-04-23T07:46:12.282Z,30.51
2019-04-23T07:48:28.828Z,32.69
2019-04-23T07:51:06.429Z,32.51
2019-04-23T07:53:40.128Z,31.25
2019-04-23T07:58:33.532Z,31.57
2019-04-23T08:01:12.570Z,32.09
2019-04-23T08:03:45.097Z,30.71
2019-04-23T08:06:15.301Z,30.71
2019-04-23T08:08:50.563Z,31.63
2019-04-23T08:13:57.273Z,31.09
2019-04-23T08:18:55.605Z,31.01
2019-04-23T08:21:24.731Z,29.62
2019-04-23T08:29:41.367Z,30.59
2019-04-23T08:32:13.875Z,29.87
2019-04-23T08:34:54.702Z,29.62
2019-04-23T08:37:32.491Z,28.68
2019-04-23T08:39:46.475Z,28.54
2019-04-23T08:48:17.310Z,29.70
2019-04-23T08:50:40.769Z,30.01
2019-04-23T08:53:23.265Z,30.33
2019-04-23T08:55:46.367Z,30.91
2019-04-23T08:58:14.101Z,31.56
2019-04-23T09:03:31.354Z,30.96
2019-04-23T09:05:52.995Z,31.29
2019-04-23T09:08:25.303Z,31.14
2019-04-23T09:10:56.746Z,30.19
2019-04-23T09:13:51.961Z,31.17
2019-04-23T09:15:56.266Z,29.74
2019-04-23T09:20:55.166Z,29.41
2019-04-23T09:23:34.470Z,28.83
2019-04-23T09:25:57.575Z,29.21
2019-04-23T09:28:41.425Z,29.78
2019-04-23T09:31:27.308Z,29.89
2019-04-23T09:36:59.692Z,29.97
2019-04-23T09:40:10.870Z,29.95
2019-04-23T09:42:47.886Z,30.18
2019-04-23T09:48:01.966Z,32.49
2019-04-23T09:50:36.571Z,32.74
2019-04-23T09:58:07.816Z,33.22
2019-04-23T10:00:40.648Z,33.55
2019-04-23T10:03:04.871Z,32.78
2019-04-23T10:05:31.023Z,33.07
2019-04-23T10:08:01.742Z,33.27
2019-04-23T10:10:22.874Z,32.34
2019-04-23T10:12:53.901Z,34.18
2019-04-23T10:15:28.840Z,34.21
2019-04-23T10:17:56.349Z,33.41
2019-04-23T10:20:26.752Z,33.44
2019-04-23T10:22:56.774Z,33.40
2019-04-23T10:25:27.897Z,33.11
2019-04-23T10:28:01.600Z,33.27
2019-04-23T10:30:29.011Z,32.99
2019-04-23T10:32:59.083Z,32.05
2019-04-23T10:35:38.729Z,31.31
2019-04-23T10:38:04.469Z,31.99
2019-04-23T10:40:36.481Z,30.46
2019-04-23T10:43:05.273Z,30.50
2019-04-23T10:46:23.203Z,30.73
2019-04-23T10:49:31.398Z,29.78
2019-04-23T10:51:51.021Z,30.69
2019-04-23T10:57:13.741Z,31.68
2019-04-23T10:59:38.808Z,29.96
2019-04-23T11:02:29.197Z,29.20
2019-04-23T11:07:27.200Z,30.05
2019-04-23T11:12:42.485Z,31.84
2019-04-23T11:15:52.412Z,31.44
2019-04-23T11:20:29.972Z,31.75
2019-04-23T11:22:50.924Z,32.47
2019-04-23T11:25:31.554Z,34.36
2019-04-23T11:35:50.611Z,32.27
2019-04-23T11:40:35.638Z,31.72
2019-04-23T11:43:14.689Z,32.20
2019-04-23T11:53:24.138Z,33.81
2019-04-23T11:56:09.188Z,33.98
2019-04-23T11:58:20.230Z,32.95
2019-04-23T12:06:45.715Z,33.88
2019-04-23T12:12:28.064Z,34.00
2019-04-23T12:19:57.754Z,35.46
2019-04-23T12:22:34.318Z,35.06
2019-04-23T12:27:30.572Z,35.83
2019-04-23T12:35:03.672Z,36.18
2019-04-23T12:38:04.163Z,36.30
2019-04-23T12:40:32.332Z,35.42
2019-04-23T12:45:27.433Z,36.73
2019-04-23T12:47:56.699Z,36.79
2019-04-23T12:55:35.880Z,37.35
2019-04-23T12:58:01.209Z,36.72
2019-04-23T13:00:33.082Z,37.74
2019-04-23T13:03:16.977Z,36.48
2019-04-23T13:05:35.864Z,39.47
2019-04-23T13:08:08.016Z,36.88
2019-04-23T13:15:40.807Z,38.88
2019-04-23T13:18:15.297Z,38.81
2019-04-23T13:20:38.486Z,38.47
2019-04-23T13:23:16.552Z,39.28
2019-04-23T13:25:59.599Z,39.07
2019-04-23T13:33:52.186Z,40.55
2019-04-23T13:38:40.370Z,39.78
2019-04-23T13:41:23.487Z,39.86
2019-04-23T13:43:45.423Z,39.40
2019-04-23T13:48:42.338Z,40.72
2019-04-23T13:51:26.300Z,40.04
2019-04-23T13:54:09.707Z,40.75
2019-04-23T13:56:47.929Z,41.38
2019-04-23T13:58:55.010Z,41.41
2019-04-23T14:01:30.687Z,41.14
2019-04-23T14:04:20.847Z,40.92
2019-04-23T14:11:30.965Z,40.10
2019-04-23T14:14:22.302Z,38.90
2019-04-23T14:19:23.261Z,38.82
2019-04-23T14:21:44.414Z,39.01
2019-04-23T14:26:50.877Z,39.14
2019-04-23T14:29:21.718Z,39.40
2019-04-23T14:32:01.324Z,39.65
2019-04-23T14:34:29.105Z,39.34
2019-04-23T14:36:59.035Z,40.13
2019-04-23T14:39:24.059Z,41.23
2019-04-23T14:42:06.961Z,39.83
2019-04-23T14:44:31.433Z,38.99
2019-04-23T14:49:55.427Z,39.40
2019-04-23T14:52:12.175Z,39.49
2019-04-23T14:55:22.621Z,38.92
2019-04-23T14:57:31.714Z,40.11
2019-04-23T14:59:56.941Z,38.89
2019-04-23T15:02:25.664Z,39.60
2019-04-23T15:04:56.561Z,39.65
2019-04-23T15:10:07.017Z,40.71
2019-04-23T15:12:30.131Z,40.92
2019-04-23T15:15:06.185Z,41.19
2019-04-23T15:17:34.067Z,41.19
2019-04-23T15:20:11.867Z,41.69
2019-04-23T15:22:59.815Z,40.97
2019-04-23T15:25:25.599Z,41.08
2019-04-23T15:30:03.764Z,43.21
2019-04-23T15:33:03.893Z,43.51
2019-04-23T15:35:23.864Z,42.75
2019-04-23T15:38:12.050Z,42.88
2019-04-23T15:43:00.966Z,45.17
2019-04-23T15:45:21.364Z,47.18
2019-04-23T15:47:56.773Z,48.57
2019-04-23T15:50:26.629Z,48.73
2019-04-23T15:55:27.881Z,48.03
2019-04-23T15:58:14.281Z,49.02
2019-04-23T16:02:33.272Z,46.68
2019-04-23T16:05:03.765Z,47.93
2019-04-23T16:07:51.909Z,47.36
2019-04-23T16:10:28.825Z,47.84
2019-04-23T16:13:02.926Z,47.82
2019-04-23T16:15:40.364Z,47.85
2019-04-23T16:18:23.691Z,47.60
2019-04-23T16:23:15.234Z,48.02
2019-04-23T16:25:49.386Z,48.33
2019-04-23T16:28:18.871Z,48.08
2019-04-23T16:31:00.877Z,48.20
2019-04-23T16:33:18.648Z,48.98
2019-04-23T16:38:45.541Z,49.57
2019-04-23T16:41:06.227Z,48.98
2019-04-23T16:43:44.054Z,50.23
2019-04-23T16:46:07.113Z,49.97
2019-04-23T16:49:02.853Z,49.76
2019-04-23T16:51:26.078Z,50.05
2019-04-23T16:53:54.151Z,50.27
2019-04-23T17:01:17.182Z,49.96
2019-04-23T17:03:54.887Z,50.44
2019-04-23T17:06:15.886Z,50.47
2019-04-23T17:09:07.032Z,51.02
2019-04-23T17:11:19.143Z,51.60
2019-04-23T17:13:58.994Z,51.73
2019-04-23T17:18:54.846Z,51.55
2019-04-23T17:21:23.357Z,51.46
2019-04-23T17:24:08.089Z,51.15
2019-04-23T17:26:31.669Z,51.53
2019-04-23T17:29:08.000Z,51.55
2019-04-23T17:31:35.392Z,52.30
2019-04-23T17:34:17.516Z,52.62
2019-04-23T17:40:08.403Z,53.74
2019-04-23T17:42:48.293Z,54.99
2019-04-23T17:48:13.238Z,54.65
2019-04-23T17:50:52.731Z,54.83
2019-04-23T17:56:01.505Z,54.83
2019-04-23T18:01:11.264Z,55.82
2019-04-23T18:03:41.404Z,58.86
2019-04-23T18:06:14.130Z,59.48
2019-04-23T18:08:34.051Z,60.59
2019-04-23T18:11:12.886Z,61.01
2019-04-23T18:18:44.897Z,65.07
2019-04-23T18:21:56.578Z,65.95
2019-04-23T18:24:36.784Z,62.33
2019-04-23T18:30:02.726Z,64.70
2019-04-23T18:32:42.875Z,65.15
2019-04-23T18:37:34.447Z,64.00
2019-04-23T18:40:08.565Z,64.63
2019-04-23T18:45:14.768Z,63.62
2019-04-23T18:47:49.070Z,63.48
2019-04-23T18:50:22.511Z,62.96
2019-04-23T18:55:36.501Z,62.38
2019-04-23T18:58:04.223Z,62.64
2019-04-23T19:00:36.581Z,62.83
2019-04-23T19:03:37.354Z,62.60
2019-04-23T19:06:32.070Z,62.63
2019-04-23T19:09:19.823Z,64.08
2019-04-23T19:17:36.013Z,62.82
2019-04-23T19:19:48.630Z,62.96
2019-04-23T19:24:45.153Z,62.95
2019-04-23T19:27:16.793Z,64.20
2019-04-23T19:32:14.705Z,63.26
2019-04-23T19:34:43.922Z,62.38
2019-04-23T19:37:22.865Z,62.76
2019-04-23T19:39:47.948Z,62.24
2019-04-23T19:42:19.691Z,62.42
2019-04-23T19:45:17.169Z,61.68
2019-04-23T19:47:37.860Z,61.53
2019-04-23T19:50:02.180Z,62.26
2019-04-23T19:52:52.616Z,61.67
2019-04-23T19:54:58.581Z,62.17
2019-04-23T19:57:42.529Z,61.41
2019-04-23T20:00:02.463Z,61.82
2019-04-23T20:02:58.169Z,61.20
2019-04-23T20:05:07.237Z,62.42
2019-04-23T20:07:46.091Z,61.54
2019-04-23T20:10:07.888Z,62.33
2019-04-23T20:12:40.808Z,61.33
2019-04-23T20:15:07.394Z,61.77
2019-04-23T20:17:43.150Z,61.53
2019-04-23T20:20:19.396Z,61.24
2019-04-23T20:22:52.033Z,61.35
2019-04-23T20:26:01.141Z,61.08
2019-04-23T20:30:54.856Z,62.28
2019-04-23T20:33:55.540Z,61.51
2019-04-23T20:36:25.301Z,62.17
2019-04-23T20:38:54.730Z,62.28
2019-04-23T20:41:23.703Z,62.31
2019-04-23T20:43:55.551Z,61.89
2019-04-23T20:46:14.962Z,62.87
2019-04-23T20:48:55.015Z,62.71
2019-04-23T20:51:24.789Z,62.80
2019-04-23T20:53:57.395Z,63.00
2019-04-23T20:56:25.378Z,62.79
2019-04-23T20:59:00.171Z,63.46
2019-04-23T21:01:37.188Z,63.45
2019-04-23T21:04:04.927Z,64.23
2019-04-23T21:06:45.905Z,64.43
2019-04-23T21:11:48.326Z,65.74
2019-04-23T21:16:42.729Z,67.39
2019-04-23T21:19:24.702Z,66.30
2019-04-23T21:22:12.926Z,64.53
2019-04-23T21:24:42.758Z,64.58
2019-04-23T21:27:27.834Z,63.99
2019-04-23T21:29:58.737Z,63.77
2019-04-23T21:32:33.452Z,63.44
2019-04-23T21:35:05.644Z,63.58
2019-04-23T21:37:54.231Z,63.04
2019-04-23T21:43:55.491Z,62.86
2019-04-23T21:46:24.227Z,63.18
2019-04-23T21:48:59.877Z,62.14
2019-04-23T21:53:42.669Z,62.70
2019-04-23T21:56:15.221Z,63.28
2019-04-23T21:58:53.396Z,62.19
2019-04-23T22:01:21.327Z,62.62
2019-04-23T22:04:03.896Z,61.83
2019-04-23T22:06:25.603Z,62.04
2019-04-23T22:08:56.322Z,61.21
2019-04-23T22:11:42.656Z,61.64
2019-04-23T22:16:37.091Z,61.11
2019-04-23T22:21:36.176Z,60.55
2019-04-23T22:24:03.105Z,60.39
2019-04-23T22:29:13.861Z,60.38
2019-04-23T22:31:40.263Z,61.31
2019-04-23T22:36:39.387Z,60.22
2019-04-23T22:41:41.653Z,59.40
2019-04-23T22:44:09.554Z,59.27
2019-04-23T22:49:28.634Z,58.88
2019-04-23T22:52:05.974Z,59.03
2019-04-23T22:54:40.162Z,58.51
2019-04-23T22:56:54.308Z,57.88
2019-04-23T23:02:22.978Z,58.51
2019-04-23T23:04:51.618Z,57.22
2019-04-23T23:07:20.170Z,57.86
2019-04-23T23:09:56.115Z,58.36
2019-04-23T23:12:26.569Z,57.35
2019-04-23T23:14:54.185Z,57.34
2019-04-23T23:17:24.198Z,55.72
2019-04-23T23:20:01.064Z,56.61
2019-04-23T23:22:51.446Z,57.24
2019-04-23T23:25:04.766Z,58.89
2019-04-23T23:27:32.330Z,60.84
2019-04-23T23:30:05.048Z,63.09
2019-04-23T23:32:31.193Z,64.24
2019-04-23T23:37:28.394Z,66.72
2019-04-23T23:40:14.702Z,67.22
2019-04-23T23:42:34.864Z,68.14
2019-04-23T23:45:21.637Z,68.75
2019-04-23T23:47:39.400Z,68.95
2019-04-23T23:50:25.142Z,69.00
2019-04-23T23:52:48.785Z,69.51
2019-04-23T23:55:16.604Z,70.64
2019-04-23T23:57:50.925Z,70.73
